Time;durP1;ratioP1;P1;durP2;ratioP2;P2;SDS_P1;SDS_P2;PMS_P1;PMS_P2;Temp;Humidity;BMP_temperature;BMP_pressure;BME280_temperature;BME280_humidity;BME280_pressure;Samples;Min_cycle;Max_cycle;Signal;HPM_P1;HPM_P2
2023/08/29 00:00:13;;;;;;;12.85;6.38;;;;;;;;;;5008764;28;20323;-74
2023/08/29 00:02:41;;;;;;;10.90;6.00;;;;;;;;;;5010128;28;20057;-74
2023/08/29 00:05:06;;;;;;;12.02;5.45;;;;;;;;;;5009555;28;20104;-74
2023/08/29 00:07:31;;;;;;;10.55;6.35;;;;;;;;;;5010882;28;20494;-74
2023/08/29 00:09:57;;;;;;;9.33;6.30;;;;;;;;;;5010727;28;20028;-74
2023/08/29 00:12:22;;;;;;;12.50;6.53;;;;;;;;;;5007116;28;20746;-74
2023/08/29 00:14:47;;;;;;;12.48;6.88;;;;;;;;;;5009961;28;20268;-74
2023/08/29 00:17:16;;;;;;;10.40;6.72;;;;;;;;;;5008424;28;20065;-74
2023/08/29 00:19:41;;;;;;;11.68;7.50;;;;;;;;;;5009249;28;20017;-74
2023/08/29 00:22:06;;;;;;;20.42;8.70;;;;;;;;;;5009774;28;20026;-74
2023/08/29 00:24:31;;;;;;;17.40;8.35;;;;;;;;;;5010889;28;20021;-74
2023/08/29 00:26:57;;;;;;;12.03;8.70;;;;;;;;;;5008771;28;20034;-74
2023/08/29 00:29:22;;;;;;;9.77;7.15;;;;;;;;;;5008089;28;20352;-74
2023/08/29 00:31:47;;;;;;;14.57;8.30;;;;;;;;;;5008836;28;20274;-74
2023/08/29 00:34:12;;;;;;;11.93;7.40;;;;;;;;;;5010406;28;20332;-74
2023/08/29 00:36:37;;;;;;;14.17;7.73;;;;;;;;;;5009921;28;20277;-74
2023/08/29 00:39:03;;;;;;;11.63;7.97;;;;;;;;;;5010180;28;20253;-74
2023/08/29 00:41:28;;;;;;;14.73;7.75;;;;;;;;;;5009485;28;20273;-74
2023/08/29 00:43:54;;;;;;;12.80;8.20;;;;;;;;;;5007018;28;20375;-74
2023/08/29 00:46:20;;;;;;;17.17;7.37;;;;;;;;;;5008169;28;20033;-74
2023/08/29 00:48:45;;;;;;;16.55;8.98;;;;;;;;;;5010392;28;20355;-74
2023/08/29 00:51:11;;;;;;;13.52;8.18;;;;;;;;;;5010032;28;20033;-74
2023/08/29 00:53:36;;;;;;;12.00;7.65;;;;;;;;;;5010676;28;20375;-74
2023/08/29 00:56:02;;;;;;;13.50;7.33;;;;;;;;;;5010648;28;20022;-74
2023/08/29 00:58:27;;;;;;;11.13;7.32;;;;;;;;;;5007153;28;20268;-74
2023/08/29 01:00:52;;;;;;;16.10;8.23;;;;;;;;;;5005999;28;20054;-74
2023/08/29 01:03:18;;;;;;;11.65;7.18;;;;;;;;;;5011594;28;20475;-74
2023/08/29 01:05:43;;;;;;;9.43;6.13;;;;;;;;;;5014769;28;20028;-74
2023/08/29 01:08:08;;;;;;;20.63;6.57;;;;;;;;;;5012159;28;20627;-74
2023/08/29 01:10:36;;;;;;;8.52;6.78;;;;;;;;;;5014035;28;20273;-74
2023/08/29 01:13:20;;;;;;;15.88;6.22;;;;;;;;;;5004197;28;20101;-74
2023/08/29 01:15:48;;;;;;;9.63;6.65;;;;;;;;;;5007981;28;20248;-74
2023/08/29 01:18:14;;;;;;;9.35;6.47;;;;;;;;;;5012916;28;20514;-74
2023/08/29 01:20:40;;;;;;;12.50;6.25;;;;;;;;;;5014001;28;20101;-74
2023/08/29 01:23:28;;;;;;;13.38;6.43;;;;;;;;;;4996454;28;20018;-74
2023/08/29 01:26:12;;;;;;;8.85;7.00;;;;;;;;;;5011989;28;20022;-74
2023/08/29 01:28:38;;;;;;;12.10;6.95;;;;;;;;;;5007325;28;20017;-74
2023/08/29 01:31:04;;;;;;;9.80;6.75;;;;;;;;;;5011252;28;20026;-74
2023/08/29 01:33:30;;;;;;;12.00;7.80;;;;;;;;;;5008414;28;20092;-74
2023/08/29 01:35:55;;;;;;;10.65;7.97;;;;;;;;;;5013997;28;20056;-74
2023/08/29 01:38:20;;;;;;;12.43;7.57;;;;;;;;;;5011467;28;20021;-74
2023/08/29 01:40:46;;;;;;;15.15;8.68;;;;;;;;;;5011006;28;20026;-74
2023/08/29 01:43:11;;;;;;;17.98;8.68;;;;;;;;;;5011854;28;20406;-74
2023/08/29 01:45:36;;;;;;;13.40;8.27;;;;;;;;;;5009816;28;20431;-74
2023/08/29 01:48:01;;;;;;;17.33;8.68;;;;;;;;;;5011311;28;20036;-74
2023/08/29 01:50:28;;;;;;;15.52;8.93;;;;;;;;;;5013285;28;20025;-74
2023/08/29 01:52:53;;;;;;;14.40;8.38;;;;;;;;;;5013814;28;20388;-74
2023/08/29 01:55:19;;;;;;;11.43;8.13;;;;;;;;;;5012370;28;20021;-74
2023/08/29 01:57:44;;;;;;;20.10;9.02;;;;;;;;;;5013507;28;20040;-74
2023/08/29 02:00:10;;;;;;;14.02;8.18;;;;;;;;;;5005677;28;20385;-74
2023/08/29 02:02:35;;;;;;;13.38;8.70;;;;;;;;;;5008755;28;20371;-74
2023/08/29 02:05:01;;;;;;;11.10;8.47;;;;;;;;;;5013250;28;20021;-74
2023/08/29 02:07:26;;;;;;;12.40;8.67;;;;;;;;;;5012239;28;20276;-74
2023/08/29 02:09:51;;;;;;;11.20;8.25;;;;;;;;;;5010040;28;20304;-74
2023/08/29 02:12:16;;;;;;;24.77;11.35;;;;;;;;;;5008391;28;20053;-75
2023/08/29 02:14:41;;;;;;;14.90;8.73;;;;;;;;;;5012933;28;20048;-74
2023/08/29 02:17:07;;;;;;;13.63;8.00;;;;;;;;;;5006163;28;20273;-74
2023/08/29 02:19:32;;;;;;;13.00;8.30;;;;;;;;;;5013290;28;20742;-74
2023/08/29 02:21:57;;;;;;;15.05;8.90;;;;;;;;;;5012083;28;20069;-74
2023/08/29 02:24:22;;;;;;;10.70;7.60;;;;;;;;;;5009221;28;20097;-74
2023/08/29 02:26:47;;;;;;;11.07;7.57;;;;;;;;;;5007944;28;20257;-74
2023/08/29 02:29:12;;;;;;;11.97;7.80;;;;;;;;;;5011413;28;20785;-74
2023/08/29 02:31:38;;;;;;;13.50;8.27;;;;;;;;;;5012005;28;20328;-74
2023/08/29 02:34:03;;;;;;;15.93;8.53;;;;;;;;;;5011981;28;20257;-74
2023/08/29 02:36:28;;;;;;;12.87;7.70;;;;;;;;;;5012430;28;20598;-74
2023/08/29 02:38:53;;;;;;;12.00;7.78;;;;;;;;;;5009071;28;20264;-74
2023/08/29 02:41:19;;;;;;;15.57;9.20;;;;;;;;;;5008297;28;20026;-74
2023/08/29 02:43:44;;;;;;;13.98;8.40;;;;;;;;;;5007402;28;20033;-74
2023/08/29 02:46:09;;;;;;;14.33;9.03;;;;;;;;;;5009432;28;20555;-74
2023/08/29 02:48:34;;;;;;;15.50;8.87;;;;;;;;;;5012327;28;20268;-74
2023/08/29 02:50:59;;;;;;;15.50;8.33;;;;;;;;;;5012147;28;20292;-74
2023/08/29 02:53:25;;;;;;;13.75;9.27;;;;;;;;;;5010768;28;20295;-74
2023/08/29 02:55:51;;;;;;;17.75;9.80;;;;;;;;;;5005518;28;20021;-74
2023/08/29 02:58:16;;;;;;;15.65;9.63;;;;;;;;;;5010582;28;20013;-74
2023/08/29 03:00:41;;;;;;;12.45;9.00;;;;;;;;;;5011051;28;20108;-74
2023/08/29 03:03:07;;;;;;;12.60;9.50;;;;;;;;;;5011931;28;20039;-74
2023/08/29 03:05:32;;;;;;;14.45;9.52;;;;;;;;;;5012102;28;20025;-74
2023/08/29 03:07:58;;;;;;;18.27;9.93;;;;;;;;;;5010673;28;20432;-74
2023/08/29 03:10:23;;;;;;;16.98;9.65;;;;;;;;;;5008479;28;20022;-74
2023/08/29 03:12:51;;;;;;;13.60;9.60;;;;;;;;;;5009207;28;20079;-74
2023/08/29 03:15:18;;;;;;;19.15;9.60;;;;;;;;;;5009547;28;20025;-74
2023/08/29 03:17:43;;;;;;;16.45;9.57;;;;;;;;;;5011423;28;20109;-74
2023/08/29 03:20:09;;;;;;;15.48;9.45;;;;;;;;;;5010818;28;20137;-74
2023/08/29 03:22:34;;;;;;;15.60;9.57;;;;;;;;;;5008124;28;20045;-74
2023/08/29 03:24:59;;;;;;;16.50;9.40;;;;;;;;;;5010983;28;20014;-74
2023/08/29 03:27:25;;;;;;;17.77;8.65;;;;;;;;;;5011693;28;20018;-74
2023/08/29 03:29:50;;;;;;;13.32;9.20;;;;;;;;;;5006539;28;20096;-74
2023/08/29 03:32:15;;;;;;;19.67;11.02;;;;;;;;;;5009437;28;20057;-74
2023/08/29 03:34:41;;;;;;;17.30;11.20;;;;;;;;;;5011925;28;20029;-74
2023/08/29 03:37:07;;;;;;;19.23;11.43;;;;;;;;;;5004889;28;20273;-74
2023/08/29 03:39:32;;;;;;;26.48;10.57;;;;;;;;;;5007110;28;20313;-74
2023/08/29 03:41:57;;;;;;;23.90;11.27;;;;;;;;;;5010091;28;20622;-74
2023/08/29 03:44:23;;;;;;;19.53;11.60;;;;;;;;;;5005961;28;20332;-74
2023/08/29 03:46:49;;;;;;;17.90;10.63;;;;;;;;;;5008379;28;20351;-74
2023/08/29 03:49:14;;;;;;;15.43;10.15;;;;;;;;;;5009628;28;20042;-74
2023/08/29 03:51:39;;;;;;;21.47;11.10;;;;;;;;;;5007256;28;20018;-74
2023/08/29 03:54:04;;;;;;;21.70;10.17;;;;;;;;;;5011040;28;20361;-74
2023/08/29 03:56:29;;;;;;;19.08;9.95;;;;;;;;;;5011288;28;20245;-74
2023/08/29 03:58:55;;;;;;;15.80;10.13;;;;;;;;;;5010920;28;20446;-74
2023/08/29 04:01:20;;;;;;;15.37;9.93;;;;;;;;;;5008016;28;20859;-74
2023/08/29 04:03:45;;;;;;;16.10;10.23;;;;;;;;;;5009930;28;20272;-74
2023/08/29 04:06:11;;;;;;;16.13;10.40;;;;;;;;;;5004788;28;20277;-74
2023/08/29 04:08:36;;;;;;;15.50;9.75;;;;;;;;;;5007036;28;20117;-74
2023/08/29 04:11:02;;;;;;;20.20;8.80;;;;;;;;;;5009042;28;20065;-74
2023/08/29 04:13:28;;;;;;;15.82;9.57;;;;;;;;;;5010309;28;20344;-74
2023/08/29 04:15:53;;;;;;;12.75;8.48;;;;;;;;;;5009854;28;20151;-74
2023/08/29 04:18:19;;;;;;;18.75;9.55;;;;;;;;;;5009574;28;20114;-74
2023/08/29 04:20:44;;;;;;;17.73;9.68;;;;;;;;;;5010397;28;20572;-74
2023/08/29 04:23:10;;;;;;;14.25;9.60;;;;;;;;;;5010946;28;20026;-74
2023/08/29 04:25:36;;;;;;;20.10;9.80;;;;;;;;;;5009722;28;20022;-74
2023/08/29 04:28:01;;;;;;;14.45;9.75;;;;;;;;;;5010409;28;20083;-74
2023/08/29 04:30:26;;;;;;;15.50;9.25;;;;;;;;;;5008778;28;20091;-74
2023/08/29 04:32:51;;;;;;;13.80;9.63;;;;;;;;;;5008566;28;20018;-74
2023/08/29 04:35:17;;;;;;;15.43;9.63;;;;;;;;;;4992507;28;20765;-74
2023/08/29 04:37:46;;;;;;;19.98;9.77;;;;;;;;;;5008553;28;20502;-74
2023/08/29 04:40:11;;;;;;;17.23;10.77;;;;;;;;;;5004605;28;20116;-74
2023/08/29 04:42:40;;;;;;;18.40;10.93;;;;;;;;;;5010305;28;20511;-74
2023/08/29 04:45:06;;;;;;;24.00;9.82;;;;;;;;;;5009756;28;20421;-74
2023/08/29 04:47:31;;;;;;;17.70;9.88;;;;;;;;;;5010246;28;20100;-74
2023/08/29 04:49:57;;;;;;;17.42;10.20;;;;;;;;;;5010636;28;20033;-74
2023/08/29 04:52:22;;;;;;;20.13;10.50;;;;;;;;;;5008157;28;20104;-74
2023/08/29 04:54:48;;;;;;;20.15;10.20;;;;;;;;;;5004532;28;20053;-74
2023/08/29 04:57:13;;;;;;;17.08;10.25;;;;;;;;;;5008532;28;20077;-74
2023/08/29 04:59:38;;;;;;;16.52;10.45;;;;;;;;;;5004295;28;20022;-74
2023/08/29 05:02:04;;;;;;;20.13;10.80;;;;;;;;;;5003270;28;20021;-74
2023/08/29 05:04:29;;;;;;;15.35;10.55;;;;;;;;;;5010089;28;20022;-74
2023/08/29 05:06:55;;;;;;;21.13;10.33;;;;;;;;;;5010305;28;20018;-74
2023/08/29 05:09:20;;;;;;;20.92;10.50;;;;;;;;;;5010274;28;20291;-74
2023/08/29 05:11:45;;;;;;;21.50;9.30;;;;;;;;;;5010140;28;20430;-74
2023/08/29 05:14:11;;;;;;;16.13;10.23;;;;;;;;;;5007567;28;20276;-74
2023/08/29 05:16:36;;;;;;;18.95;9.43;;;;;;;;;;5000401;28;20376;-74
2023/08/29 05:19:01;;;;;;;16.13;9.30;;;;;;;;;;5005953;28;20053;-74
2023/08/29 05:21:26;;;;;;;17.97;10.53;;;;;;;;;;5009686;28;20261;-74
2023/08/29 05:23:54;;;;;;;18.00;9.73;;;;;;;;;;5009688;28;20253;-74
2023/08/29 05:26:19;;;;;;;20.52;9.90;;;;;;;;;;5007409;28;20018;-74
2023/08/29 05:28:44;;;;;;;14.93;9.57;;;;;;;;;;5005121;28;20480;-74
2023/08/29 05:31:09;;;;;;;16.07;10.67;;;;;;;;;;5007849;28;20284;-74
2023/08/29 05:33:34;;;;;;;14.53;10.03;;;;;;;;;;5009747;28;20332;-74
2023/08/29 05:35:59;;;;;;;17.10;10.17;;;;;;;;;;5008979;28;20615;-74
2023/08/29 05:38:25;;;;;;;19.83;10.50;;;;;;;;;;5008696;28;20264;-74
2023/08/29 05:40:51;;;;;;;18.23;10.15;;;;;;;;;;5003598;28;20277;-74
2023/08/29 05:43:17;;;;;;;17.55;10.90;;;;;;;;;;4999200;28;20072;-74
2023/08/29 05:45:43;;;;;;;16.55;10.02;;;;;;;;;;5003957;28;20330;-74
2023/08/29 05:48:08;;;;;;;27.93;10.63;;;;;;;;;;4998702;28;20072;-74
2023/08/29 05:50:33;;;;;;;17.13;10.43;;;;;;;;;;5007100;28;20331;-74
2023/08/29 05:52:58;;;;;;;16.60;10.27;;;;;;;;;;5003361;28;20373;-74
2023/08/29 05:55:23;;;;;;;17.80;10.17;;;;;;;;;;5005022;28;20276;-74
2023/08/29 05:57:49;;;;;;;14.63;9.95;;;;;;;;;;5012977;28;20285;-74
2023/08/29 06:00:14;;;;;;;14.20;9.65;;;;;;;;;;5011808;28;20435;-74
2023/08/29 06:02:40;;;;;;;14.48;10.15;;;;;;;;;;5013281;28;20068;-74
2023/08/29 06:05:06;;;;;;;18.58;10.48;;;;;;;;;;5013627;28;20025;-74
2023/08/29 06:07:31;;;;;;;19.80;10.25;;;;;;;;;;5007422;28;20017;-74
2023/08/29 06:09:57;;;;;;;19.08;11.52;;;;;;;;;;5008568;28;20013;-74
2023/08/29 06:12:22;;;;;;;16.73;11.38;;;;;;;;;;4994598;28;20356;-74
2023/08/29 06:14:47;;;;;;;15.63;10.90;;;;;;;;;;5006891;28;20626;-74
2023/08/29 06:17:12;;;;;;;17.13;11.10;;;;;;;;;;5012784;28;20068;-74
2023/08/29 06:19:38;;;;;;;17.43;11.33;;;;;;;;;;5011616;28;20018;-74
2023/08/29 06:22:03;;;;;;;20.23;11.27;;;;;;;;;;5001427;28;20641;-74
2023/08/29 06:24:28;;;;;;;21.15;10.88;;;;;;;;;;5003913;28;20379;-74
2023/08/29 06:26:54;;;;;;;20.75;11.43;;;;;;;;;;5005739;28;20032;-74
2023/08/29 06:29:19;;;;;;;21.17;12.18;;;;;;;;;;5012906;28;20025;-74
2023/08/29 06:31:44;;;;;;;18.60;11.98;;;;;;;;;;5012554;28;20079;-74
2023/08/29 06:34:10;;;;;;;19.17;10.80;;;;;;;;;;5012751;28;20467;-74
2023/08/29 06:36:35;;;;;;;22.50;12.25;;;;;;;;;;5005465;28;20281;-74
2023/08/29 06:39:01;;;;;;;18.20;11.65;;;;;;;;;;5006191;28;20113;-74
2023/08/29 06:41:27;;;;;;;26.88;12.73;;;;;;;;;;5012022;28;20472;-74
2023/08/29 06:43:52;;;;;;;22.17;12.40;;;;;;;;;;5010267;28;20323;-74
2023/08/29 06:46:17;;;;;;;22.67;11.83;;;;;;;;;;5012330;28;20353;-74
2023/08/29 06:48:42;;;;;;;17.67;11.40;;;;;;;;;;5012175;28;20269;-74
2023/08/29 06:51:07;;;;;;;18.50;11.33;;;;;;;;;;5004052;28;20286;-74
2023/08/29 06:53:33;;;;;;;22.20;12.63;;;;;;;;;;5010978;28;20265;-74
2023/08/29 06:55:58;;;;;;;18.40;10.90;;;;;;;;;;5005646;28;20014;-73
2023/08/29 06:58:23;;;;;;;19.52;12.43;;;;;;;;;;5006870;28;20526;-74
2023/08/29 07:00:48;;;;;;;20.92;11.95;;;;;;;;;;5007450;28;20025;-74
2023/08/29 07:03:13;;;;;;;30.10;13.83;;;;;;;;;;5012083;28;20018;-74
2023/08/29 07:05:39;;;;;;;35.20;19.93;;;;;;;;;;5007151;28;20638;-74
2023/08/29 07:08:05;;;;;;;38.92;19.95;;;;;;;;;;5006476;28;20304;-74
2023/08/29 07:10:30;;;;;;;31.92;19.23;;;;;;;;;;4993567;28;22024;-74
2023/08/29 07:12:55;;;;;;;36.30;21.73;;;;;;;;;;5009575;28;20026;-74
2023/08/29 07:15:20;;;;;;;38.47;21.17;;;;;;;;;;5000860;28;20376;-74
2023/08/29 07:17:45;;;;;;;43.50;22.88;;;;;;;;;;5004435;28;20096;-73
2023/08/29 07:20:11;;;;;;;36.03;21.90;;;;;;;;;;5002797;28;20503;-74
2023/08/29 07:22:37;;;;;;;37.00;21.20;;;;;;;;;;5004832;28;20014;-74
2023/08/29 07:25:02;;;;;;;37.33;22.55;;;;;;;;;;5009279;28;20489;-74
2023/08/29 07:27:29;;;;;;;41.05;21.80;;;;;;;;;;5010426;28;20101;-74
2023/08/29 07:29:54;;;;;;;36.20;21.25;;;;;;;;;;5011371;28;20018;-74
2023/08/29 07:32:19;;;;;;;35.53;21.20;;;;;;;;;;5011449;28;20475;-74
2023/08/29 07:34:44;;;;;;;39.00;21.43;;;;;;;;;;5010717;28;20388;-73
2023/08/29 07:37:09;;;;;;;38.13;21.60;;;;;;;;;;5011643;28;20253;-73
2023/08/29 07:39:35;;;;;;;36.17;21.70;;;;;;;;;;5010621;28;20299;-74
2023/08/29 07:42:00;;;;;;;46.47;21.37;;;;;;;;;;5011021;28;20388;-73
2023/08/29 07:44:25;;;;;;;41.33;21.70;;;;;;;;;;5011471;28;20351;-73
2023/08/29 07:46:50;;;;;;;35.97;22.97;;;;;;;;;;5011081;28;20248;-74
2023/08/29 07:49:20;;;;;;;40.78;22.40;;;;;;;;;;5010321;28;20342;-73
2023/08/29 07:51:45;;;;;;;36.83;22.45;;;;;;;;;;5014902;28;20054;-73
2023/08/29 07:54:10;;;;;;;38.40;23.20;;;;;;;;;;5010905;28;20061;-73
2023/08/29 07:56:35;;;;;;;37.03;20.97;;;;;;;;;;5009659;28;20434;-73
2023/08/29 07:59:01;;;;;;;38.17;23.88;;;;;;;;;;5010938;28;20280;-73
2023/08/29 08:01:26;;;;;;;38.17;21.90;;;;;;;;;;5010990;28;20034;-73
2023/08/29 08:03:51;;;;;;;34.50;21.03;;;;;;;;;;5009459;28;20272;-74
2023/08/29 08:06:16;;;;;;;35.70;21.25;;;;;;;;;;5010913;28;20756;-73
2023/08/29 08:08:41;;;;;;;36.13;22.23;;;;;;;;;;5007621;28;20018;-73
2023/08/29 08:11:07;;;;;;;40.10;21.53;;;;;;;;;;5002354;28;20289;-74
2023/08/29 08:13:33;;;;;;;36.95;19.15;;;;;;;;;;5011199;28;20257;-73
2023/08/29 08:15:58;;;;;;;35.25;20.90;;;;;;;;;;5010752;28;20045;-74
2023/08/29 08:18:24;;;;;;;33.83;19.83;;;;;;;;;;5010960;28;20034;-74
2023/08/29 08:20:49;;;;;;;30.05;18.80;;;;;;;;;;5010564;28;20344;-73
2023/08/29 08:23:14;;;;;;;31.47;19.00;;;;;;;;;;5006856;28;20022;-74
2023/08/29 08:25:39;;;;;;;32.17;18.83;;;;;;;;;;5007897;28;20356;-73
2023/08/29 08:28:06;;;;;;;31.00;18.67;;;;;;;;;;5010736;28;20730;-73
2023/08/29 08:30:31;;;;;;;26.00;16.05;;;;;;;;;;5010687;28;20026;-73
2023/08/29 08:32:56;;;;;;;26.45;17.00;;;;;;;;;;5010594;28;20028;-73
2023/08/29 08:35:22;;;;;;;27.58;16.80;;;;;;;;;;5010131;28;20360;-73
2023/08/29 08:37:47;;;;;;;30.77;18.40;;;;;;;;;;5008842;28;20018;-73
2023/08/29 08:40:14;;;;;;;27.53;15.50;;;;;;;;;;5008205;28;20619;-73
2023/08/29 08:42:40;;;;;;;23.48;15.10;;;;;;;;;;5010498;28;20332;-73
2023/08/29 08:45:05;;;;;;;29.13;15.50;;;;;;;;;;5010434;28;20097;-73
2023/08/29 08:47:31;;;;;;;27.02;14.88;;;;;;;;;;5010383;28;20491;-73
2023/08/29 08:49:57;;;;;;;22.95;14.77;;;;;;;;;;5010278;28;20487;-73
2023/08/29 08:52:23;;;;;;;27.83;15.35;;;;;;;;;;5008027;28;20906;-74
2023/08/29 08:54:48;;;;;;;30.00;15.83;;;;;;;;;;5005726;28;20080;-73
2023/08/29 08:57:13;;;;;;;28.70;15.93;;;;;;;;;;5008315;28;20277;-73
2023/08/29 08:59:39;;;;;;;33.65;17.38;;;;;;;;;;5007053;28;20471;-73
2023/08/29 09:02:08;;;;;;;29.05;17.95;;;;;;;;;;5009851;28;20026;-73
2023/08/29 09:04:33;;;;;;;27.65;16.45;;;;;;;;;;5010454;28;20391;-74
2023/08/29 09:06:58;;;;;;;29.13;17.27;;;;;;;;;;5009405;28;20021;-73
2023/08/29 09:09:23;;;;;;;27.73;15.93;;;;;;;;;;5008997;28;20280;-74
2023/08/29 09:11:52;;;;;;;28.42;15.82;;;;;;;;;;5008383;28;20307;-74
2023/08/29 09:14:17;;;;;;;23.10;15.52;;;;;;;;;;5010167;28;20205;-73
2023/08/29 09:16:43;;;;;;;23.67;15.32;;;;;;;;;;5000332;28;20479;-74
2023/08/29 09:19:08;;;;;;;24.58;15.40;;;;;;;;;;5008594;28;20127;-74
2023/08/29 09:21:35;;;;;;;26.35;16.00;;;;;;;;;;4992657;28;20595;-73
2023/08/29 09:24:00;;;;;;;26.55;14.85;;;;;;;;;;5012058;28;20026;-73
2023/08/29 09:26:34;;;;;;;32.83;17.00;;;;;;;;;;5012094;28;20360;-74
2023/08/29 09:29:14;;;;;;;30.25;16.55;;;;;;;;;;5013214;28;20273;-73
2023/08/29 09:31:40;;;;;;;25.50;16.25;;;;;;;;;;5008111;28;20038;-72
2023/08/29 09:34:05;;;;;;;27.97;17.13;;;;;;;;;;5007336;28;20025;-74
2023/08/29 09:36:30;;;;;;;27.63;15.55;;;;;;;;;;5013857;28;20311;-74
2023/08/29 09:38:57;;;;;;;27.80;15.87;;;;;;;;;;5013805;28;20014;-73
2023/08/29 09:41:22;;;;;;;31.73;16.83;;;;;;;;;;5008042;28;20443;-74
2023/08/29 09:43:48;;;;;;;28.53;16.47;;;;;;;;;;5013533;28;20105;-73
2023/08/29 09:46:13;;;;;;;28.23;15.93;;;;;;;;;;5013165;28;20310;-73
2023/08/29 09:48:53;;;;;;;30.53;15.40;;;;;;;;;;4992304;28;20087;-74
2023/08/29 09:51:18;;;;;;;29.60;15.00;;;;;;;;;;5002808;28;20324;-73
2023/08/29 09:53:43;;;;;;;30.30;14.90;;;;;;;;;;5004362;28;20050;-74
2023/08/29 09:56:09;;;;;;;24.00;14.02;;;;;;;;;;5010003;28;20256;-74
2023/08/29 09:58:36;;;;;;;29.00;15.13;;;;;;;;;;5013529;28;20367;-74
2023/08/29 10:01:04;;;;;;;22.63;13.23;;;;;;;;;;5013042;28;20037;-74
2023/08/29 10:03:30;;;;;;;19.40;12.73;;;;;;;;;;5006542;28;20025;-74
2023/08/29 10:05:55;;;;;;;21.52;13.95;;;;;;;;;;5011695;28;20022;-73
2023/08/29 10:08:25;;;;;;;23.90;14.52;;;;;;;;;;5007325;28;20168;-74
2023/08/29 10:10:55;;;;;;;24.38;14.18;;;;;;;;;;5012395;28;20033;-74
2023/08/29 10:13:20;;;;;;;24.05;13.70;;;;;;;;;;5012540;28;20546;-73
2023/08/29 10:15:47;;;;;;;25.52;14.05;;;;;;;;;;5006970;28;20029;-74
2023/08/29 10:18:13;;;;;;;31.33;13.20;;;;;;;;;;5010157;28;20037;-74
2023/08/29 10:20:43;;;;;;;23.05;13.38;;;;;;;;;;5012638;28;20026;-74
2023/08/29 10:23:09;;;;;;;24.90;12.88;;;;;;;;;;5007421;28;20033;-74
2023/08/29 10:25:35;;;;;;;20.70;13.45;;;;;;;;;;5010824;28;20164;-74
2023/08/29 10:28:01;;;;;;;23.88;12.77;;;;;;;;;;5008526;28;20104;-74
2023/08/29 10:30:26;;;;;;;19.17;11.90;;;;;;;;;;5007970;28;20629;-74
2023/08/29 10:32:53;;;;;;;19.00;11.65;;;;;;;;;;5011474;28;20029;-74
2023/08/29 10:35:19;;;;;;;18.05;10.85;;;;;;;;;;4994930;28;20391;-74
2023/08/29 10:37:46;;;;;;;16.92;10.40;;;;;;;;;;5000673;28;20009;-74
2023/08/29 10:40:11;;;;;;;13.73;8.27;;;;;;;;;;5005609;28;20145;-74
2023/08/29 10:42:53;;;;;;;20.13;9.40;;;;;;;;;;5008061;28;20096;-74
2023/08/29 10:45:22;;;;;;;14.90;8.70;;;;;;;;;;5012411;28;20025;-74
2023/08/29 10:47:47;;;;;;;14.10;8.95;;;;;;;;;;5011956;28;20030;-74
2023/08/29 10:50:17;;;;;;;10.57;6.65;;;;;;;;;;5012032;28;20033;-74
2023/08/29 10:52:42;;;;;;;17.87;7.43;;;;;;;;;;5010586;28;20022;-74
2023/08/29 10:55:23;;;;;;;13.80;6.43;;;;;;;;;;5004502;28;20029;-74
2023/08/29 10:57:49;;;;;;;17.08;5.97;;;;;;;;;;5010625;28;20084;-73
2023/08/29 11:00:34;;;;;;;11.43;5.97;;;;;;;;;;5006324;28;20024;-74
2023/08/29 11:03:00;;;;;;;14.70;5.53;;;;;;;;;;5010047;28;20544;-74
2023/08/29 11:05:25;;;;;;;13.80;5.82;;;;;;;;;;5005469;28;20026;-74
2023/08/29 11:07:50;;;;;;;12.90;6.17;;;;;;;;;;5002411;28;20463;-74
2023/08/29 11:10:22;;;;;;;9.23;6.13;;;;;;;;;;5009220;28;20750;-76
2023/08/29 11:13:06;;;;;;;11.60;6.53;;;;;;;;;;5008141;28;20284;-76
2023/08/29 11:15:46;;;;;;;9.52;6.07;;;;;;;;;;5004170;28;20535;-76
2023/08/29 11:18:17;;;;;;;10.73;5.63;;;;;;;;;;5000007;28;20436;-76
2023/08/29 11:20:43;;;;;;;10.25;6.28;;;;;;;;;;5000363;28;20018;-77
2023/08/29 11:23:11;;;;;;;9.25;4.78;;;;;;;;;;4998787;28;20025;-76
2023/08/29 11:25:37;;;;;;;6.60;3.78;;;;;;;;;;5005905;28;20017;-77
2023/08/29 11:28:02;;;;;;;7.80;3.90;;;;;;;;;;5001097;28;20029;-75
2023/08/29 11:30:28;;;;;;;6.97;3.05;;;;;;;;;;5004607;28;20033;-76
2023/08/29 11:32:53;;;;;;;6.57;4.15;;;;;;;;;;5002476;28;20015;-77
2023/08/29 11:35:18;;;;;;;6.30;2.88;;;;;;;;;;5006527;28;20047;-76
2023/08/29 11:37:43;;;;;;;7.32;3.03;;;;;;;;;;5008240;28;20022;-75
2023/08/29 11:40:09;;;;;;;5.47;2.70;;;;;;;;;;5006820;28;20498;-75
2023/08/29 11:42:35;;;;;;;5.18;3.03;;;;;;;;;;5006997;28;20272;-76
2023/08/29 11:45:05;;;;;;;12.65;3.92;;;;;;;;;;5007513;28;20018;-76
2023/08/29 11:47:30;;;;;;;;;;;;;;;;;;5003106;28;20026;-75
2023/08/29 11:49:55;;;;;;;8.38;3.40;;;;;;;;;;5007710;28;19956;-76
2023/08/29 11:52:21;;;;;;;6.63;3.03;;;;;;;;;;4991233;28;20022;-75
2023/08/29 11:54:50;;;;;;;8.65;3.17;;;;;;;;;;5000267;28;20426;-75
2023/08/29 11:57:16;;;;;;;7.65;2.50;;;;;;;;;;5001649;28;20251;-75
2023/08/29 11:59:42;;;;;;;7.90;3.45;;;;;;;;;;5005761;28;20411;-76
2023/08/29 12:02:09;;;;;;;6.70;3.92;;;;;;;;;;4997686;28;20387;-75
2023/08/29 12:04:37;;;;;;;9.93;4.03;;;;;;;;;;5000812;28;20398;-75
2023/08/29 12:07:09;;;;;;;7.82;4.53;;;;;;;;;;5005108;28;20108;-77
2023/08/29 12:09:34;;;;;;;13.73;6.53;;;;;;;;;;4985778;28;20053;-77
2023/08/29 12:12:00;;;;;;;11.13;8.32;;;;;;;;;;4998913;28;20049;-75
2023/08/29 12:14:27;;;;;;;16.02;9.20;;;;;;;;;;5003945;28;20375;-76
2023/08/29 12:16:55;;;;;;;16.60;8.90;;;;;;;;;;5006953;28;20034;-75
2023/08/29 12:19:20;;;;;;;13.50;8.60;;;;;;;;;;5009822;28;20017;-75
2023/08/29 12:21:52;;;;;;;21.77;9.43;;;;;;;;;;5009550;28;20026;-76
2023/08/29 12:24:18;;;;;;;12.70;7.90;;;;;;;;;;5003712;28;20061;-76
2023/08/29 12:26:43;;;;;;;14.53;10.00;;;;;;;;;;5006609;28;20050;-76
2023/08/29 12:29:08;;;;;;;15.93;9.53;;;;;;;;;;5005687;28;20368;-76
2023/08/29 12:31:33;;;;;;;14.93;8.77;;;;;;;;;;5001322;28;20645;-75
2023/08/29 12:33:58;;;;;;;17.13;9.80;;;;;;;;;;5001283;28;20276;-75
2023/08/29 12:36:24;;;;;;;14.68;9.80;;;;;;;;;;5004771;28;21494;-74
2023/08/29 12:38:49;;;;;;;18.57;11.30;;;;;;;;;;5007085;28;20026;-73
2023/08/29 12:41:16;;;;;;;16.50;11.23;;;;;;;;;;5001686;28;20285;-73
2023/08/29 12:43:42;;;;;;;20.65;12.00;;;;;;;;;;5000111;28;20398;-73
2023/08/29 12:46:08;;;;;;;16.77;11.73;;;;;;;;;;5001036;28;20019;-73
2023/08/29 12:48:33;;;;;;;17.63;11.95;;;;;;;;;;5004177;28;20029;-73
2023/08/29 12:50:59;;;;;;;16.90;11.17;;;;;;;;;;4999867;28;20056;-73
2023/08/29 12:53:24;;;;;;;18.53;11.60;;;;;;;;;;5002429;28;20641;-73
2023/08/29 12:55:50;;;;;;;19.97;11.43;;;;;;;;;;5005072;28;20279;-73
2023/08/29 12:58:15;;;;;;;19.63;12.30;;;;;;;;;;4999678;28;20022;-73
2023/08/29 13:00:41;;;;;;;16.77;11.17;;;;;;;;;;5008357;28;20041;-73
2023/08/29 13:03:07;;;;;;;17.63;9.95;;;;;;;;;;5007067;28;20263;-73
2023/08/29 13:05:32;;;;;;;15.25;9.73;;;;;;;;;;5005303;28;20022;-73
2023/08/29 13:07:57;;;;;;;15.57;10.40;;;;;;;;;;4998858;28;20125;-73
2023/08/29 13:10:23;;;;;;;16.47;11.10;;;;;;;;;;5000334;28;20373;-73
2023/08/29 13:12:48;;;;;;;21.90;11.35;;;;;;;;;;5002572;28;20384;-73
2023/08/29 13:15:16;;;;;;;27.88;12.07;;;;;;;;;;5003677;28;20061;-73
2023/08/29 13:17:41;;;;;;;18.45;11.40;;;;;;;;;;5000685;28;20788;-73
2023/08/29 13:20:07;;;;;;;19.63;13.03;;;;;;;;;;5005473;28;20065;-75
2023/08/29 13:22:32;;;;;;;17.45;9.98;;;;;;;;;;5009544;28;20273;-73
2023/08/29 13:24:58;;;;;;;16.70;9.15;;;;;;;;;;5006829;28;20045;-73
2023/08/29 13:27:23;;;;;;;16.67;7.78;;;;;;;;;;5001580;28;20026;-75
2023/08/29 13:29:48;;;;;;;11.87;6.50;;;;;;;;;;5006076;28;20022;-73
2023/08/29 13:32:13;;;;;;;15.83;6.77;;;;;;;;;;5003522;28;20284;-73
2023/08/29 13:34:38;;;;;;;8.37;5.17;;;;;;;;;;5006352;28;20045;-73
2023/08/29 13:37:04;;;;;;;10.10;5.87;;;;;;;;;;5008598;28;20364;-73
2023/08/29 13:39:29;;;;;;;13.73;7.87;;;;;;;;;;5008505;28;20323;-73
2023/08/29 13:41:54;;;;;;;11.35;7.78;;;;;;;;;;5006453;28;20069;-73
2023/08/29 13:44:19;;;;;;;10.53;5.63;;;;;;;;;;5007019;28;20026;-73
2023/08/29 13:46:45;;;;;;;13.77;6.03;;;;;;;;;;5005269;28;20065;-73
2023/08/29 13:49:11;;;;;;;10.52;5.88;;;;;;;;;;5002959;28;20027;-73
2023/08/29 13:51:36;;;;;;;9.88;7.15;;;;;;;;;;5004648;28;20030;-73
2023/08/29 13:54:01;;;;;;;10.93;6.30;;;;;;;;;;5002896;28;20472;-73
2023/08/29 13:56:26;;;;;;;14.55;6.57;;;;;;;;;;5003796;28;20277;-73
2023/08/29 13:58:52;;;;;;;16.33;6.80;;;;;;;;;;5001646;28;20022;-73
2023/08/29 14:01:17;;;;;;;10.33;6.43;;;;;;;;;;5001783;28;20270;-73
2023/08/29 14:03:42;;;;;;;7.80;4.93;;;;;;;;;;5009918;28;20014;-73
2023/08/29 14:06:07;;;;;;;6.07;3.88;;;;;;;;;;5003218;28;20843;-73
2023/08/29 14:08:33;;;;;;;5.45;3.85;;;;;;;;;;5006267;28;20430;-73
2023/08/29 14:10:59;;;;;;;7.35;3.65;;;;;;;;;;5011899;28;20028;-73
2023/08/29 14:13:24;;;;;;;8.32;3.47;;;;;;;;;;5011613;28;20073;-73
2023/08/29 14:15:55;;;;;;;3.83;2.28;;;;;;;;;;5011290;28;20026;-73
2023/08/29 14:18:21;;;;;;;8.15;3.10;;;;;;;;;;5005366;28;20069;-73